createdAt,value
2019-02-27T00:00:09.178Z,6.60
2019-02-27T00:02:40.246Z,6.60
2019-02-27T00:05:09.555Z,6.60
2019-02-27T00:07:38.596Z,6.70
2019-02-27T00:10:09.727Z,6.60
2019-02-27T00:12:38.944Z,6.60
2019-02-27T00:15:08.450Z,6.50
2019-02-27T00:17:37.644Z,6.60
2019-02-27T00:20:07.114Z,6.60
2019-02-27T00:22:36.250Z,6.50
2019-02-27T00:25:06.064Z,6.50
2019-02-27T00:27:35.452Z,6.40
2019-02-27T00:30:05.868Z,6.40
2019-02-27T00:32:35.461Z,6.50
2019-02-27T00:35:07.203Z,6.50
2019-02-27T00:37:36.393Z,6.50
2019-02-27T00:40:06.291Z,6.50
2019-02-27T00:42:35.840Z,6.50
2019-02-27T00:45:07.045Z,6.40
2019-02-27T00:47:36.478Z,6.30
2019-02-27T00:50:06.824Z,6.20
2019-02-27T00:52:36.040Z,6.20
2019-02-27T00:55:05.728Z,6.20
2019-02-27T00:57:34.860Z,6.10
2019-02-27T01:00:06.592Z,6.10
2019-02-27T01:02:35.262Z,6.10
2019-02-27T01:05:06.223Z,6.10
2019-02-27T01:07:36.612Z,6.00
2019-02-27T01:10:06.632Z,5.90
2019-02-27T01:12:36.029Z,5.90
2019-02-27T01:15:07.987Z,5.90
2019-02-27T01:17:36.529Z,5.90
2019-02-27T01:20:06.365Z,5.90
2019-02-27T01:22:35.528Z,5.90
2019-02-27T01:25:05.729Z,5.80
2019-02-27T01:27:37.928Z,5.80
2019-02-27T01:30:07.132Z,5.80
2019-02-27T01:32:36.580Z,5.70
2019-02-27T01:35:06.495Z,5.70
2019-02-27T01:37:35.640Z,5.70
2019-02-27T01:40:05.912Z,5.70
2019-02-27T01:42:35.246Z,5.70
2019-02-27T01:45:05.021Z,5.70
2019-02-27T01:47:36.136Z,5.70
2019-02-27T01:50:27.292Z,5.70
2019-02-27T01:52:57.760Z,5.70
2019-02-27T01:55:27.237Z,5.50
2019-02-27T01:57:57.833Z,5.50
2019-02-27T02:00:27.253Z,5.50
2019-02-27T02:02:56.477Z,5.50
2019-02-27T02:05:28.519Z,5.40
2019-02-27T02:07:57.689Z,5.40
2019-02-27T02:10:28.309Z,5.30
2019-02-27T02:13:14.923Z,5.30
2019-02-27T02:16:18.906Z,5.20
2019-02-27T02:19:22.019Z,5.30
2019-02-27T02:22:16.377Z,5.30
2019-02-27T02:25:04.651Z,5.20
2019-02-27T02:28:14.753Z,5.10
2019-02-27T02:30:58.228Z,5.00
2019-02-27T02:33:37.951Z,4.90
2019-02-27T02:36:52.629Z,5.00
2019-02-27T02:39:59.976Z,5.00
2019-02-27T02:43:29.264Z,4.90
2019-02-27T02:46:08.666Z,4.90
2019-02-27T02:49:08.018Z,5.00
2019-02-27T02:51:50.616Z,5.10
2019-02-27T02:54:37.476Z,5.00
2019-02-27T02:57:35.923Z,5.00
2019-02-27T03:00:34.727Z,4.90
2019-02-27T03:03:23.069Z,4.80
2019-02-27T03:06:17.592Z,4.80
2019-02-27T03:09:21.557Z,4.80
2019-02-27T03:12:29.571Z,4.80
2019-02-27T03:15:17.552Z,4.70
2019-02-27T03:18:40.513Z,4.70
2019-02-27T03:22:03.225Z,4.70
2019-02-27T03:24:42.084Z,4.70
2019-02-27T03:27:29.586Z,4.80
2019-02-27T03:30:37.549Z,4.70
2019-02-27T03:33:46.121Z,4.60
2019-02-27T03:36:39.034Z,4.80
2019-02-27T03:39:35.018Z,4.90
2019-02-27T03:42:34.155Z,4.80
2019-02-27T03:45:38.772Z,4.70
2019-02-27T03:48:27.746Z,4.70
2019-02-27T03:51:36.024Z,4.60
2019-02-27T03:54:44.136Z,4.60
2019-02-27T03:57:29.969Z,4.70
2019-02-27T04:00:34.362Z,4.70
2019-02-27T04:03:22.441Z,4.70
2019-02-27T04:06:46.341Z,4.60
2019-02-27T04:09:18.646Z,4.60
2019-02-27T04:11:47.084Z,4.60
2019-02-27T04:14:29.961Z,4.70
2019-02-27T04:17:05.402Z,4.60
2019-02-27T04:19:30.115Z,4.60
2019-02-27T04:22:01.105Z,4.60
2019-02-27T04:24:30.388Z,4.50
2019-02-27T04:26:59.712Z,4.40
2019-02-27T04:29:28.746Z,4.40
2019-02-27T04:31:57.925Z,4.30
2019-02-27T04:34:27.361Z,4.30
2019-02-27T04:36:56.952Z,4.30
2019-02-27T04:39:26.030Z,4.30
2019-02-27T04:41:55.107Z,4.30
2019-02-27T04:44:24.212Z,4.40
2019-02-27T04:46:55.081Z,4.30
2019-02-27T04:49:25.508Z,4.30
2019-02-27T04:51:54.696Z,4.20
2019-02-27T04:54:23.930Z,4.20
2019-02-27T04:56:55.097Z,4.10
2019-02-27T04:59:23.926Z,4.10
2019-02-27T05:01:53.284Z,4.00
2019-02-27T05:04:22.498Z,4.00
2019-02-27T05:06:51.680Z,4.10
2019-02-27T05:09:25.572Z,4.10
2019-02-27T05:11:54.673Z,4.10
2019-02-27T05:14:24.878Z,4.30
2019-02-27T05:16:55.080Z,4.40
2019-02-27T05:19:27.476Z,4.50
2019-02-27T05:21:56.807Z,4.50
2019-02-27T05:24:25.884Z,4.60
2019-02-27T05:26:55.336Z,4.60
2019-02-27T05:29:24.495Z,4.50
2019-02-27T05:31:53.997Z,4.40
2019-02-27T05:34:23.727Z,4.20
2019-02-27T05:36:53.209Z,4.20
2019-02-27T05:39:22.814Z,4.20
2019-02-27T05:41:51.966Z,4.20
2019-02-27T05:44:22.354Z,4.20
2019-02-27T05:46:51.584Z,4.20
2019-02-27T05:49:20.839Z,4.20
2019-02-27T05:51:50.421Z,4.30
2019-02-27T05:54:19.913Z,4.20
2019-02-27T05:56:49.748Z,4.20
2019-02-27T05:59:19.630Z,4.20
2019-02-27T06:01:49.040Z,4.10
2019-02-27T06:04:18.876Z,4.10
2019-02-27T06:06:48.066Z,4.10
2019-02-27T06:09:17.472Z,4.20
2019-02-27T06:11:47.192Z,4.30
2019-02-27T06:14:16.393Z,4.60
2019-02-27T06:16:48.712Z,4.70
2019-02-27T06:19:17.774Z,4.70
2019-02-27T06:21:47.457Z,4.60
2019-02-27T06:24:18.872Z,4.40
2019-02-27T06:26:48.125Z,4.50
2019-02-27T06:29:17.326Z,4.60
2019-02-27T06:31:47.703Z,4.60
2019-02-27T06:34:17.066Z,4.50
2019-02-27T06:36:46.412Z,4.40
2019-02-27T06:39:15.506Z,4.40
2019-02-27T06:41:47.247Z,4.30
2019-02-27T06:44:32.832Z,4.20
2019-02-27T06:47:07.214Z,4.30
2019-02-27T06:49:36.421Z,4.50
2019-02-27T06:52:08.952Z,4.70
2019-02-27T06:54:37.772Z,5.10
2019-02-27T06:57:07.776Z,5.30
2019-02-27T06:59:37.836Z,5.30
2019-02-27T07:02:06.980Z,5.40
2019-02-27T07:04:39.645Z,5.70
2019-02-27T07:07:07.363Z,5.90
2019-02-27T07:09:36.612Z,6.20
2019-02-27T07:12:07.236Z,6.40
2019-02-27T07:14:39.239Z,6.50
2019-02-27T07:17:07.613Z,6.60
2019-02-27T07:19:36.656Z,6.80
2019-02-27T07:22:12.529Z,6.90
2019-02-27T07:24:40.888Z,7.00
2019-02-27T07:27:14.672Z,7.30
2019-02-27T07:29:44.156Z,7.50
2019-02-27T07:32:13.344Z,7.80
2019-02-27T07:34:42.929Z,7.80
2019-02-27T07:37:12.943Z,8.00
2019-02-27T07:39:43.396Z,8.10
2019-02-27T07:42:12.747Z,8.40
2019-02-27T07:44:42.285Z,8.60
2019-02-27T07:47:11.425Z,9.10
2019-02-27T07:49:41.596Z,9.40
2019-02-27T07:52:10.904Z,9.90
2019-02-27T07:54:40.132Z,10.40
2019-02-27T07:57:11.144Z,11.00
2019-02-27T07:59:40.883Z,11.60
2019-02-27T08:02:10.424Z,11.80
2019-02-27T08:04:39.664Z,11.90
2019-02-27T08:07:10.089Z,12.00
2019-02-27T08:09:40.761Z,12.10
2019-02-27T08:12:09.856Z,12.40
2019-02-27T08:14:39.345Z,12.60
2019-02-27T08:17:17.271Z,12.80
2019-02-27T08:19:39.375Z,12.60
2019-02-27T08:22:08.813Z,12.60
2019-02-27T08:24:39.537Z,12.90
2019-02-27T08:27:09.692Z,12.80
2019-02-27T08:29:40.656Z,12.90
2019-02-27T08:32:09.989Z,12.80
2019-02-27T08:34:39.672Z,12.80
2019-02-27T08:37:12.479Z,12.70
2019-02-27T08:39:43.421Z,12.70
2019-02-27T08:42:12.673Z,12.80
2019-02-27T08:44:46.672Z,13.00
2019-02-27T08:47:16.316Z,13.30
2019-02-27T08:49:45.660Z,13.50
2019-02-27T08:54:50.255Z,13.30
2019-02-27T08:57:19.708Z,13.50
2019-02-27T09:02:24.249Z,13.90
2019-02-27T09:04:53.397Z,14.00
2019-02-27T09:07:22.516Z,14.10
2019-02-27T09:09:52.384Z,14.10
2019-02-27T09:12:21.761Z,14.30
2019-02-27T09:14:51.720Z,14.50
2019-02-27T09:17:20.913Z,14.60
2019-02-27T09:19:51.514Z,14.70
2019-02-27T09:22:20.622Z,14.60
2019-02-27T09:24:49.741Z,14.60
2019-02-27T09:29:54.741Z,14.50
2019-02-27T09:32:24.544Z,14.60
2019-02-27T09:34:53.544Z,14.70
2019-02-27T09:37:23.051Z,14.90
2019-02-27T09:39:52.204Z,15.00
2019-02-27T09:42:21.439Z,15.00
2019-02-27T09:44:50.872Z,15.10
2019-02-27T09:47:23.245Z,15.20
2019-02-27T09:49:51.509Z,15.30
2019-02-27T09:52:20.672Z,15.30
2019-02-27T09:54:49.752Z,15.40
2019-02-27T09:57:21.601Z,15.40
2019-02-27T09:59:51.174Z,15.40
2019-02-27T10:02:21.952Z,15.60
2019-02-27T10:04:51.203Z,15.60
2019-02-27T10:07:39.799Z,15.60
2019-02-27T10:10:10.422Z,15.70
2019-02-27T10:12:40.176Z,15.80
2019-02-27T10:15:09.272Z,15.90
2019-02-27T10:17:41.076Z,16.10
2019-02-27T10:20:09.337Z,16.10
2019-02-27T10:22:39.306Z,16.10
2019-02-27T10:25:08.711Z,16.10
2019-02-27T10:27:38.680Z,16.40
2019-02-27T10:30:11.478Z,16.50
2019-02-27T10:32:39.900Z,16.70
2019-02-27T10:35:09.236Z,16.80
2019-02-27T10:37:42.183Z,16.70
2019-02-27T10:40:13.064Z,16.70
2019-02-27T10:42:42.160Z,16.80
2019-02-27T10:45:11.352Z,16.90
2019-02-27T10:47:41.247Z,17.00
2019-02-27T10:50:12.517Z,17.20
2019-02-27T10:52:41.727Z,17.20
2019-02-27T10:55:14.169Z,17.30
2019-02-27T10:57:44.816Z,17.50
2019-02-27T11:00:25.163Z,17.60
2019-02-27T11:02:54.092Z,17.80
2019-02-27T11:05:23.605Z,17.70
2019-02-27T11:07:53.502Z,17.70
2019-02-27T11:10:23.373Z,17.80
2019-02-27T11:12:52.569Z,17.90
2019-02-27T11:15:21.741Z,17.90
2019-02-27T11:17:51.316Z,17.90
2019-02-27T11:20:21.759Z,18.10
2019-02-27T11:22:51.412Z,18.10
2019-02-27T11:25:22.547Z,18.30
2019-02-27T11:27:52.297Z,18.30
2019-02-27T11:30:23.848Z,18.50
2019-02-27T11:32:57.031Z,18.40
2019-02-27T11:35:25.178Z,18.40
2019-02-27T11:37:55.210Z,18.30
2019-02-27T11:40:26.148Z,18.30
2019-02-27T11:42:55.539Z,18.50
2019-02-27T11:45:25.248Z,18.70
2019-02-27T11:47:54.433Z,18.80
2019-02-27T11:50:24.175Z,18.80
2019-02-27T11:52:53.709Z,18.80
2019-02-27T11:55:42.037Z,18.80
2019-02-27T11:58:11.839Z,18.90
2019-02-27T12:00:41.205Z,18.90
2019-02-27T12:03:11.183Z,19.00
2019-02-27T12:05:41.468Z,19.10
2019-02-27T12:08:11.426Z,19.20
2019-02-27T12:10:40.687Z,19.40
2019-02-27T12:13:09.809Z,19.40
2019-02-27T12:15:43.297Z,19.50
2019-02-27T12:18:10.195Z,19.60
2019-02-27T12:20:40.267Z,19.60
2019-02-27T12:23:10.121Z,19.40
2019-02-27T12:25:40.002Z,19.30
2019-02-27T12:28:10.578Z,19.30
2019-02-27T12:30:39.796Z,19.30
2019-02-27T12:33:09.551Z,19.30
2019-02-27T12:35:38.676Z,19.30
2019-02-27T12:38:08.526Z,19.40
2019-02-27T12:40:38.143Z,19.40
2019-02-27T12:43:07.648Z,19.50
2019-02-27T12:45:36.725Z,19.50
2019-02-27T12:48:05.898Z,19.70
2019-02-27T12:50:35.156Z,19.80
2019-02-27T12:53:04.572Z,19.80
2019-02-27T12:55:36.259Z,19.80
2019-02-27T12:58:04.577Z,19.90
2019-02-27T13:00:34.205Z,20.00
2019-02-27T13:03:08.435Z,20.10
2019-02-27T13:05:34.466Z,20.10
2019-02-27T13:08:07.081Z,20.00
2019-02-27T13:10:36.228Z,20.00
2019-02-27T13:13:07.140Z,20.10
2019-02-27T13:15:38.364Z,20.00
2019-02-27T13:18:07.541Z,19.90
2019-02-27T13:20:37.078Z,19.90
2019-02-27T13:23:07.711Z,19.80
2019-02-27T13:25:37.152Z,19.80
2019-02-27T13:28:06.967Z,19.80
2019-02-27T13:30:36.152Z,19.80
2019-02-27T13:33:06.331Z,19.90
2019-02-27T13:35:35.429Z,19.90
2019-02-27T13:38:08.120Z,19.80
2019-02-27T13:40:37.368Z,19.70
2019-02-27T13:43:06.445Z,19.70
2019-02-27T13:45:35.663Z,19.80
2019-02-27T13:48:06.074Z,19.80
2019-02-27T13:50:35.365Z,19.80
2019-02-27T13:53:04.467Z,19.80
2019-02-27T13:55:33.553Z,19.70
2019-02-27T13:58:03.895Z,19.70
2019-02-27T14:00:33.350Z,19.60
2019-02-27T14:03:02.904Z,19.70
2019-02-27T14:05:36.057Z,19.70
2019-02-27T14:08:23.513Z,19.70
2019-02-27T14:10:54.025Z,19.70
2019-02-27T14:13:23.435Z,19.60
2019-02-27T14:15:52.646Z,19.60
2019-02-27T14:18:22.171Z,19.70
2019-02-27T14:20:51.421Z,19.70
2019-02-27T14:23:21.188Z,19.60
2019-02-27T14:25:50.848Z,19.60
2019-02-27T14:28:21.002Z,19.60
2019-02-27T14:30:51.809Z,19.50
2019-02-27T14:33:21.890Z,19.50
2019-02-27T14:35:51.175Z,19.50
2019-02-27T14:38:21.872Z,19.40
2019-02-27T14:40:52.248Z,19.40
2019-02-27T14:43:21.392Z,19.40
2019-02-27T14:45:51.323Z,19.30
2019-02-27T14:48:21.574Z,19.20
2019-02-27T14:50:51.442Z,19.20
2019-02-27T14:53:20.941Z,19.10
2019-02-27T14:55:50.257Z,19.00
2019-02-27T14:58:24.065Z,19.00
2019-02-27T15:00:50.848Z,18.90
2019-02-27T15:03:20.008Z,18.90
2019-02-27T15:05:49.946Z,18.90
2019-02-27T15:08:19.126Z,18.90
2019-02-27T15:10:48.332Z,18.80
2019-02-27T15:13:17.660Z,18.80
2019-02-27T15:15:46.836Z,18.70
2019-02-27T15:18:17.811Z,18.60
2019-02-27T15:20:46.920Z,18.60
2019-02-27T15:23:17.193Z,18.70
2019-02-27T15:25:46.277Z,18.60
2019-02-27T15:28:17.296Z,18.60
2019-02-27T15:30:47.294Z,18.50
2019-02-27T15:33:17.156Z,18.50
2019-02-27T15:35:46.353Z,18.50
2019-02-27T15:38:15.473Z,18.50
2019-02-27T15:40:44.588Z,18.50
2019-02-27T15:43:16.985Z,18.40
2019-02-27T15:45:47.935Z,18.40
2019-02-27T15:48:16.352Z,18.30
2019-02-27T15:50:45.841Z,18.20
2019-02-27T15:53:16.338Z,18.10
2019-02-27T15:55:45.881Z,18.10
2019-02-27T15:58:16.328Z,18.20
2019-02-27T16:00:45.434Z,18.10
2019-02-27T16:03:14.885Z,18.00
2019-02-27T16:05:44.121Z,17.90
2019-02-27T16:08:15.296Z,17.90
2019-02-27T16:10:54.351Z,17.80
2019-02-27T16:13:15.608Z,17.80
2019-02-27T16:15:45.237Z,17.70
2019-02-27T16:18:15.092Z,17.60
2019-02-27T16:20:47.073Z,17.60
2019-02-27T16:23:16.911Z,17.50
2019-02-27T16:25:46.385Z,17.40
2019-02-27T16:28:16.640Z,17.30
2019-02-27T16:30:45.957Z,17.20
2019-02-27T16:33:15.895Z,17.20
2019-02-27T16:35:46.399Z,17.00
2019-02-27T16:38:15.671Z,17.00
2019-02-27T16:40:45.180Z,17.00
2019-02-27T16:43:14.973Z,16.90
2019-02-27T16:45:44.600Z,16.90
2019-02-27T16:48:13.904Z,16.90
2019-02-27T16:50:45.078Z,16.70
2019-02-27T16:53:18.626Z,16.60
2019-02-27T16:55:45.675Z,16.50
2019-02-27T16:58:14.842Z,16.50
2019-02-27T17:00:45.462Z,16.50
2019-02-27T17:03:14.609Z,16.40
2019-02-27T17:05:43.928Z,16.40
2019-02-27T17:08:13.324Z,16.40
2019-02-27T17:10:42.437Z,16.30
2019-02-27T17:13:14.396Z,16.20
2019-02-27T17:15:42.484Z,16.10
2019-02-27T17:18:12.869Z,15.90
2019-02-27T17:20:46.609Z,15.80
2019-02-27T17:23:16.486Z,15.70
2019-02-27T17:25:45.884Z,15.50
2019-02-27T17:28:15.068Z,15.40
2019-02-27T17:30:44.294Z,15.30
2019-02-27T17:33:15.764Z,15.20
2019-02-27T17:35:45.747Z,15.10
2019-02-27T17:38:15.242Z,14.90
2019-02-27T17:40:44.354Z,14.90
2019-02-27T17:43:13.576Z,14.80
2019-02-27T17:45:44.325Z,14.70
2019-02-27T17:48:13.968Z,14.60
2019-02-27T17:50:43.437Z,14.50
2019-02-27T17:53:12.736Z,14.30
2019-02-27T17:55:42.621Z,14.30
2019-02-27T17:58:11.821Z,14.10
2019-02-27T18:00:59.124Z,14.00
2019-02-27T18:03:28.648Z,13.90
2019-02-27T18:06:00.205Z,13.80
2019-02-27T18:08:29.381Z,13.70
2019-02-27T18:10:58.812Z,13.60
2019-02-27T18:13:28.482Z,13.50
2019-02-27T18:15:57.719Z,13.40
2019-02-27T18:18:27.389Z,13.40
2019-02-27T18:20:59.519Z,13.20
2019-02-27T18:23:28.209Z,13.10
2019-02-27T18:25:57.372Z,13.10
2019-02-27T18:28:26.484Z,13.00
2019-02-27T18:30:55.597Z,12.90
2019-02-27T18:33:24.731Z,12.80
2019-02-27T18:35:54.634Z,12.60
2019-02-27T18:38:27.601Z,12.40
2019-02-27T18:40:54.690Z,12.40
2019-02-27T18:43:23.676Z,12.40
2019-02-27T18:45:53.244Z,12.40
2019-02-27T18:48:22.338Z,12.30
2019-02-27T18:50:51.884Z,12.20
2019-02-27T18:53:21.038Z,12.10
2019-02-27T18:55:50.908Z,12.00
2019-02-27T18:58:20.946Z,11.90
2019-02-27T19:00:50.652Z,11.70
2019-02-27T19:03:19.732Z,11.70
2019-02-27T19:05:48.976Z,11.70
2019-02-27T19:08:18.462Z,11.60
2019-02-27T19:10:47.624Z,11.60
2019-02-27T19:13:16.936Z,11.50
2019-02-27T19:15:46.528Z,11.40
2019-02-27T19:18:15.799Z,11.30
2019-02-27T19:20:45.292Z,11.30
2019-02-27T19:23:17.810Z,11.30
2019-02-27T19:25:48.095Z,11.20
2019-02-27T19:28:17.178Z,11.10
2019-02-27T19:30:46.496Z,11.00
2019-02-27T19:33:15.912Z,10.90
2019-02-27T19:35:45.100Z,10.80
2019-02-27T19:38:14.292Z,10.70
2019-02-27T19:40:43.467Z,10.80
2019-02-27T19:43:13.109Z,10.60
2019-02-27T19:45:43.068Z,10.50
2019-02-27T19:48:14.044Z,10.50
2019-02-27T19:50:46.296Z,10.40
2019-02-27T19:53:14.079Z,10.40
2019-02-27T19:55:43.291Z,10.30
2019-02-27T19:58:17.255Z,10.30
2019-02-27T20:00:48.527Z,10.30
2019-02-27T20:03:15.053Z,10.30
2019-02-27T20:05:45.158Z,10.30
2019-02-27T20:08:14.765Z,10.40
2019-02-27T20:10:44.395Z,10.20
2019-02-27T20:13:15.234Z,10.10
2019-02-27T20:15:45.761Z,10.00
2019-02-27T20:18:16.276Z,9.90
2019-02-27T20:20:45.788Z,9.80
2019-02-27T20:23:15.700Z,9.80
2019-02-27T20:25:45.705Z,9.70
2019-02-27T20:28:15.112Z,9.60
2019-02-27T20:30:44.741Z,9.50
2019-02-27T20:33:14.381Z,9.50
2019-02-27T20:35:43.452Z,9.40
2019-02-27T20:38:15.964Z,9.40
2019-02-27T20:40:46.441Z,9.30
2019-02-27T20:43:16.897Z,9.30
2019-02-27T20:45:46.937Z,9.30
2019-02-27T20:48:17.401Z,9.20
2019-02-27T20:50:46.820Z,9.20
2019-02-27T20:53:15.929Z,9.20
2019-02-27T20:55:45.031Z,9.20
2019-02-27T20:58:17.411Z,9.10
2019-02-27T21:00:46.845Z,9.10
2019-02-27T21:03:17.645Z,9.10
2019-02-27T21:05:48.626Z,9.00
2019-02-27T21:08:18.160Z,8.90
2019-02-27T21:10:47.868Z,8.90
2019-02-27T21:13:17.388Z,8.90
2019-02-27T21:15:46.568Z,9.00
2019-02-27T21:18:16.410Z,8.90
2019-02-27T21:20:46.227Z,8.90
2019-02-27T21:23:17.328Z,8.80
2019-02-27T21:25:49.190Z,8.80
2019-02-27T21:28:32.453Z,8.70
2019-02-27T21:31:02.437Z,8.60
2019-02-27T21:33:31.677Z,8.70
2019-02-27T21:36:03.348Z,8.50
2019-02-27T21:38:31.640Z,8.40
2019-02-27T21:41:04.528Z,8.40
2019-02-27T21:43:34.067Z,8.30
2019-02-27T21:46:03.400Z,8.30
2019-02-27T21:48:32.560Z,8.10
2019-02-27T21:51:01.740Z,8.10
2019-02-27T21:53:30.851Z,8.10
2019-02-27T21:56:00.200Z,8.10
2019-02-27T21:58:32.824Z,8.10
2019-02-27T22:01:02.550Z,8.20
2019-02-27T22:03:32.077Z,8.20
2019-02-27T22:06:01.370Z,8.10
2019-02-27T22:08:30.811Z,8.00
2019-02-27T22:10:59.970Z,8.00
2019-02-27T22:13:32.198Z,8.00
2019-02-27T22:16:00.136Z,8.00
2019-02-27T22:18:29.514Z,8.00
2019-02-27T22:20:59.696Z,7.90
2019-02-27T22:23:29.412Z,7.80
2019-02-27T22:26:03.064Z,7.80
2019-02-27T22:28:31.001Z,7.70
2019-02-27T22:31:03.331Z,7.80
2019-02-27T22:33:32.376Z,7.70
2019-02-27T22:36:02.021Z,7.60
2019-02-27T22:38:31.037Z,7.70
2019-02-27T22:41:00.577Z,7.60
2019-02-27T22:43:30.143Z,7.60
2019-02-27T22:45:59.492Z,7.50
2019-02-27T22:48:28.827Z,7.50
2019-02-27T22:50:58.300Z,7.50
2019-02-27T22:53:29.348Z,7.50
2019-02-27T22:55:59.253Z,7.40
2019-02-27T22:58:28.365Z,7.40
2019-02-27T23:01:10.622Z,7.40
2019-02-27T23:03:42.904Z,7.40
2019-02-27T23:06:13.904Z,7.30
2019-02-27T23:08:43.828Z,7.30
2019-02-27T23:11:13.373Z,7.30
2019-02-27T23:13:47.542Z,7.30
2019-02-27T23:16:17.140Z,7.20
2019-02-27T23:18:46.416Z,7.20
2019-02-27T23:21:16.748Z,7.20
2019-02-27T23:23:45.841Z,7.30
2019-02-27T23:26:20.196Z,7.20
2019-02-27T23:28:50.720Z,7.10
2019-02-27T23:31:23.390Z,7.00
2019-02-27T23:33:50.771Z,7.00
2019-02-27T23:36:22.103Z,6.90
2019-02-27T23:38:51.172Z,6.80
2019-02-27T23:41:23.319Z,6.80
2019-02-27T23:43:51.580Z,6.80
2019-02-27T23:46:21.013Z,6.80
2019-02-27T23:48:50.174Z,6.70
2019-02-27T23:51:19.296Z,6.80
2019-02-27T23:53:48.324Z,6.70
2019-02-27T23:56:20.664Z,6.70
2019-02-27T23:58:49.812Z,6.60
